createdAt,value
2022-10-19T00:00:00.419Z,10.10
2022-10-19T00:01:01.742Z,10.10
2022-10-19T00:02:00.482Z,10.10
2022-10-19T00:03:00.365Z,10.10
2022-10-19T00:04:02.429Z,10.10
2022-10-19T00:05:01.396Z,10.10
2022-10-19T00:06:08.853Z,10.10
2022-10-19T00:07:00.328Z,10.10
2022-10-19T00:08:00.294Z,10.10
2022-10-19T00:09:00.308Z,10.10
2022-10-19T00:10:00.303Z,10.10
2022-10-19T00:11:00.844Z,10.10
2022-10-19T00:12:00.341Z,10.10
2022-10-19T00:13:00.302Z,10.10
2022-10-19T00:14:00.793Z,10.10
2022-10-19T00:15:00.727Z,10.10
2022-10-19T00:16:00.652Z,10.10
2022-10-19T00:17:00.364Z,10.10
2022-10-19T00:18:00.380Z,10.10
2022-10-19T00:19:01.743Z,10.10
2022-10-19T00:20:00.512Z,10.10
2022-10-19T00:21:02.968Z,10.10
2022-10-19T00:22:00.308Z,10.10
2022-10-19T00:23:00.363Z,10.10
2022-10-19T00:24:00.683Z,10.10
2022-10-19T00:25:00.373Z,10.10
2022-10-19T00:26:00.547Z,10.10
2022-10-19T00:27:00.296Z,10.30
2022-10-19T00:28:00.331Z,10.30
2022-10-19T00:29:01.010Z,10.30
2022-10-19T00:30:00.345Z,10.30
2022-10-19T00:31:02.629Z,10.30
2022-10-19T00:32:00.320Z,10.30
2022-10-19T00:33:00.311Z,10.30
2022-10-19T00:34:00.441Z,10.30
2022-10-19T00:35:00.382Z,10.30
2022-10-19T00:36:00.780Z,10.30
2022-10-19T00:37:00.309Z,10.30
2022-10-19T00:38:00.307Z,10.30
2022-10-19T00:39:01.555Z,10.30
2022-10-19T00:40:00.352Z,10.30
2022-10-19T00:41:01.215Z,10.30
2022-10-19T00:42:00.331Z,10.30
2022-10-19T00:43:00.299Z,10.30
2022-10-19T00:44:05.313Z,10.30
2022-10-19T00:45:05.387Z,10.30
2022-10-19T00:46:00.305Z,10.30
2022-10-19T00:47:02.498Z,10.30
2022-10-19T00:48:00.353Z,10.30
2022-10-19T00:49:11.016Z,10.30
2022-10-19T00:50:00.357Z,10.30
2022-10-19T00:51:00.620Z,10.30
2022-10-19T00:52:03.708Z,10.30
2022-10-19T00:53:00.323Z,10.30
2022-10-19T00:54:01.532Z,10.30
2022-10-19T00:55:00.806Z,10.30
2022-10-19T00:56:02.282Z,10.30
2022-10-19T00:57:00.337Z,9.90
2022-10-19T00:58:01.685Z,9.90
2022-10-19T00:59:02.504Z,9.90
2022-10-19T01:00:01.887Z,9.90
2022-10-19T01:01:02.125Z,9.90
2022-10-19T01:02:02.308Z,9.90
2022-10-19T01:03:00.763Z,9.90
2022-10-19T01:04:00.513Z,9.90
2022-10-19T01:05:00.800Z,9.90
2022-10-19T01:06:00.747Z,9.90
2022-10-19T01:07:01.703Z,9.90
2022-10-19T01:08:00.391Z,9.90
2022-10-19T01:09:00.324Z,9.90
2022-10-19T01:10:00.725Z,9.90
2022-10-19T01:11:10.261Z,9.90
2022-10-19T01:12:08.379Z,9.90
2022-10-19T01:13:03.605Z,9.90
2022-10-19T01:14:10.224Z,9.90
2022-10-19T01:15:10.265Z,9.90
2022-10-19T01:16:08.328Z,9.90
2022-10-19T01:17:00.303Z,9.90
2022-10-19T01:18:04.914Z,9.90
2022-10-19T01:19:10.285Z,9.90
2022-10-19T01:20:10.292Z,9.90
2022-10-19T01:21:01.309Z,9.90
2022-10-19T01:22:03.619Z,9.90
2022-10-19T01:23:00.288Z,9.90
2022-10-19T01:24:10.271Z,9.90
2022-10-19T01:25:07.863Z,9.90
2022-10-19T01:26:01.339Z,9.90
2022-10-19T01:27:01.326Z,13.60
2022-10-19T01:28:07.322Z,13.60
2022-10-19T01:29:00.340Z,13.60
2022-10-19T01:30:10.302Z,13.60
2022-10-19T01:31:00.286Z,13.60
2022-10-19T01:32:03.607Z,13.60
2022-10-19T01:33:05.948Z,13.60
2022-10-19T01:34:10.281Z,13.60
2022-10-19T01:35:03.608Z,13.60
2022-10-19T01:36:00.305Z,13.60
2022-10-19T01:37:03.639Z,13.60
2022-10-19T01:38:06.546Z,13.60
2022-10-19T01:39:05.645Z,13.60
2022-10-19T01:40:06.578Z,13.60
2022-10-19T01:41:01.337Z,13.60
2022-10-19T01:42:01.340Z,13.60
2022-10-19T01:43:03.741Z,13.60
2022-10-19T01:44:06.908Z,13.60
2022-10-19T01:45:06.193Z,13.60
2022-10-19T01:46:06.326Z,13.60
2022-10-19T01:47:10.253Z,13.60
2022-10-19T01:48:04.719Z,13.60
2022-10-19T01:49:03.906Z,13.60
2022-10-19T01:50:05.345Z,13.60
2022-10-19T01:51:04.883Z,13.60
2022-10-19T01:52:03.083Z,13.60
2022-10-19T01:53:02.247Z,13.60
2022-10-19T01:54:03.255Z,13.60
2022-10-19T01:55:01.906Z,13.60
2022-10-19T01:56:02.112Z,13.60
2022-10-19T01:57:02.908Z,11.90
2022-10-19T01:58:06.255Z,11.90
2022-10-19T01:59:02.961Z,11.90
2022-10-19T02:00:01.364Z,11.90
2022-10-19T02:01:03.680Z,11.90
2022-10-19T02:02:02.430Z,11.90
2022-10-19T02:03:01.065Z,11.90
2022-10-19T02:04:01.097Z,11.90
2022-10-19T02:05:01.897Z,11.90
2022-10-19T02:06:03.806Z,11.90
2022-10-19T02:07:01.291Z,11.90
2022-10-19T02:08:02.759Z,11.90
2022-10-19T02:09:00.386Z,11.90
2022-10-19T02:10:00.500Z,11.90
2022-10-19T02:11:00.791Z,11.90
2022-10-19T02:12:01.829Z,11.90
2022-10-19T02:13:01.533Z,11.90
2022-10-19T02:14:03.756Z,11.90
2022-10-19T02:15:03.098Z,11.90
2022-10-19T02:16:02.532Z,11.90
2022-10-19T02:17:04.362Z,11.90
2022-10-19T02:18:01.301Z,11.90
2022-10-19T02:19:01.127Z,11.90
2022-10-19T02:20:00.891Z,11.90
2022-10-19T02:21:02.306Z,11.90
2022-10-19T02:22:00.634Z,11.90
2022-10-19T02:23:02.105Z,11.90
2022-10-19T02:24:00.310Z,11.90
2022-10-19T02:25:00.327Z,11.90
2022-10-19T02:26:00.594Z,11.90
2022-10-19T02:27:00.570Z,10.80
2022-10-19T02:28:01.552Z,10.80
2022-10-19T02:29:00.496Z,10.80
2022-10-19T02:30:00.424Z,10.80
2022-10-19T02:31:00.792Z,10.80
2022-10-19T02:32:00.744Z,10.80
2022-10-19T02:33:00.414Z,10.80
2022-10-19T02:34:00.530Z,10.80
2022-10-19T02:35:00.631Z,10.80
2022-10-19T02:36:00.455Z,10.80
2022-10-19T02:37:00.412Z,10.80
2022-10-19T02:38:00.961Z,10.80
2022-10-19T02:39:00.345Z,10.80
2022-10-19T02:40:00.336Z,10.80
2022-10-19T02:41:07.117Z,10.80
2022-10-19T02:42:06.709Z,10.80
2022-10-19T02:43:03.102Z,10.80
2022-10-19T02:44:03.222Z,10.80
2022-10-19T02:45:10.297Z,10.80
2022-10-19T02:46:03.302Z,10.80
2022-10-19T02:47:03.938Z,10.80
2022-10-19T02:48:03.943Z,10.80
2022-10-19T02:49:01.281Z,10.80
2022-10-19T02:50:00.600Z,10.80
2022-10-19T02:51:00.336Z,10.80
2022-10-19T02:52:02.643Z,10.80
2022-10-19T02:53:00.501Z,10.80
2022-10-19T02:54:04.149Z,10.80
2022-10-19T02:55:00.304Z,10.80
2022-10-19T02:56:00.312Z,10.80
2022-10-19T02:57:00.577Z,10.50
2022-10-19T02:58:00.324Z,10.50
2022-10-19T02:59:00.820Z,10.50
2022-10-19T03:00:00.656Z,10.50
2022-10-19T03:01:00.370Z,10.50
2022-10-19T03:02:00.303Z,10.50
2022-10-19T03:03:00.353Z,10.50
2022-10-19T03:04:00.387Z,10.50
2022-10-19T03:05:00.294Z,10.50
2022-10-19T03:06:00.327Z,10.50
2022-10-19T03:07:00.795Z,10.50
2022-10-19T03:08:00.391Z,10.50
2022-10-19T03:09:00.331Z,10.50
2022-10-19T03:10:00.325Z,10.50
2022-10-19T03:11:00.334Z,10.50
2022-10-19T03:12:00.301Z,10.50
2022-10-19T03:13:00.304Z,10.50
2022-10-19T03:14:00.516Z,10.50
2022-10-19T03:15:00.323Z,10.50
2022-10-19T03:16:08.266Z,10.50
2022-10-19T03:17:00.418Z,10.50
2022-10-19T03:18:00.301Z,10.50
2022-10-19T03:19:00.308Z,10.50
2022-10-19T03:20:00.907Z,10.50
2022-10-19T03:21:01.575Z,10.50
2022-10-19T03:22:00.526Z,10.50
2022-10-19T03:23:00.338Z,10.50
2022-10-19T03:24:00.449Z,10.50
2022-10-19T03:25:00.295Z,10.50
2022-10-19T03:26:00.354Z,10.50
2022-10-19T03:27:00.476Z,13.10
2022-10-19T03:28:00.318Z,13.10
2022-10-19T03:29:00.371Z,13.10
2022-10-19T03:30:00.319Z,13.10
2022-10-19T03:31:00.305Z,13.10
2022-10-19T03:32:00.356Z,13.10
2022-10-19T03:33:00.305Z,13.10
2022-10-19T03:34:00.333Z,13.10
2022-10-19T03:35:00.310Z,13.10
2022-10-19T03:36:10.348Z,13.10
2022-10-19T03:37:00.290Z,13.10
2022-10-19T03:38:00.322Z,13.10
2022-10-19T03:39:01.809Z,13.10
2022-10-19T03:40:00.322Z,13.10
2022-10-19T03:41:00.308Z,13.10
2022-10-19T03:42:00.353Z,13.10
2022-10-19T03:43:00.325Z,13.10
2022-10-19T03:45:00.334Z,13.10
2022-10-19T03:46:00.650Z,13.10
2022-10-19T03:47:00.366Z,13.10
2022-10-19T03:48:00.299Z,13.10
2022-10-19T03:49:00.810Z,13.10
2022-10-19T03:50:00.340Z,13.10
2022-10-19T03:51:01.589Z,13.10
2022-10-19T03:52:00.315Z,13.10
2022-10-19T03:53:00.374Z,13.10
2022-10-19T03:54:03.030Z,13.10
2022-10-19T03:55:00.329Z,13.10
2022-10-19T03:56:01.116Z,13.10
2022-10-19T03:57:00.305Z,10.80
2022-10-19T03:58:00.343Z,10.80
2022-10-19T03:59:00.951Z,10.80
2022-10-19T04:00:00.343Z,10.80
2022-10-19T04:01:00.803Z,10.80
2022-10-19T04:02:00.322Z,10.80
2022-10-19T04:03:00.335Z,10.80
2022-10-19T04:04:01.742Z,10.80
2022-10-19T04:05:00.436Z,10.80
2022-10-19T04:06:01.133Z,10.80
2022-10-19T04:07:00.303Z,10.80
2022-10-19T04:08:00.302Z,10.80
2022-10-19T04:09:00.838Z,10.80
2022-10-19T04:10:00.805Z,10.80
2022-10-19T04:11:02.837Z,10.80
2022-10-19T04:12:00.306Z,10.80
2022-10-19T04:13:00.328Z,10.80
2022-10-19T04:14:01.039Z,10.80
2022-10-19T04:15:00.310Z,10.80
2022-10-19T04:16:00.385Z,10.80
2022-10-19T04:17:01.058Z,10.80
2022-10-19T04:18:00.308Z,10.80
2022-10-19T04:19:00.335Z,10.80
2022-10-19T04:20:00.331Z,10.80
2022-10-19T04:21:01.693Z,10.80
2022-10-19T04:22:00.307Z,10.80
2022-10-19T04:23:00.320Z,10.80
2022-10-19T04:24:01.815Z,10.80
2022-10-19T04:25:00.309Z,10.80
2022-10-19T04:26:00.290Z,10.80
2022-10-19T04:27:00.607Z,10.70
2022-10-19T04:28:00.330Z,10.70
2022-10-19T04:29:00.627Z,10.70
2022-10-19T04:30:00.311Z,10.70
2022-10-19T04:31:01.754Z,10.70
2022-10-19T04:32:00.306Z,10.70
2022-10-19T04:33:00.305Z,10.70
2022-10-19T04:34:00.317Z,10.70
2022-10-19T04:35:00.347Z,10.70
2022-10-19T04:36:01.086Z,10.70
2022-10-19T04:37:00.342Z,10.70
2022-10-19T04:38:00.301Z,10.70
2022-10-19T04:39:00.323Z,10.70
2022-10-19T04:40:00.301Z,10.70
2022-10-19T04:41:01.452Z,10.70
2022-10-19T04:42:00.323Z,10.70
2022-10-19T04:43:00.291Z,10.70
2022-10-19T04:44:01.407Z,10.70
2022-10-19T04:45:00.336Z,10.70
2022-10-19T04:46:02.785Z,10.70
2022-10-19T04:47:00.314Z,10.70
2022-10-19T04:48:00.329Z,10.70
2022-10-19T04:49:00.345Z,10.70
2022-10-19T04:50:00.367Z,10.70
2022-10-19T04:51:00.545Z,10.70
2022-10-19T04:52:00.303Z,10.70
2022-10-19T04:53:00.311Z,10.70
2022-10-19T04:54:01.146Z,10.70
2022-10-19T04:55:00.599Z,10.70
2022-10-19T04:56:03.887Z,10.70
2022-10-19T04:57:00.320Z,10.10
2022-10-19T04:58:00.316Z,10.10
2022-10-19T04:59:00.406Z,10.10
2022-10-19T05:00:00.396Z,10.10
2022-10-19T05:01:06.674Z,10.10
2022-10-19T05:02:00.302Z,10.10
2022-10-19T05:03:00.295Z,10.10
2022-10-19T05:04:01.242Z,10.10
2022-10-19T05:05:00.456Z,10.10
2022-10-19T05:06:00.545Z,10.10
2022-10-19T05:07:00.366Z,10.10
2022-10-19T05:08:00.759Z,10.10
2022-10-19T05:09:00.437Z,10.10
2022-10-19T05:10:00.353Z,10.10
2022-10-19T05:11:01.714Z,10.10
2022-10-19T05:12:00.353Z,10.10
2022-10-19T05:13:00.341Z,10.10
2022-10-19T05:14:00.292Z,10.10
2022-10-19T05:15:00.407Z,10.10
2022-10-19T05:16:00.968Z,10.10
2022-10-19T05:17:00.305Z,10.10
2022-10-19T05:18:00.314Z,10.10
2022-10-19T05:19:00.326Z,10.10
2022-10-19T05:20:00.523Z,10.10
2022-10-19T05:21:04.616Z,10.10
2022-10-19T05:22:00.333Z,10.10
2022-10-19T05:23:04.581Z,10.10
2022-10-19T05:24:00.285Z,10.10
2022-10-19T05:25:00.313Z,10.10
2022-10-19T05:26:00.298Z,10.10
2022-10-19T05:27:00.378Z,9.40
2022-10-19T05:28:00.300Z,9.40
2022-10-19T05:29:00.438Z,9.40
2022-10-19T05:30:00.321Z,9.40
2022-10-19T05:31:04.535Z,9.40
2022-10-19T05:32:00.305Z,9.40
2022-10-19T05:33:00.358Z,9.40
2022-10-19T05:34:00.463Z,9.40
2022-10-19T05:35:00.421Z,9.40
2022-10-19T05:36:08.844Z,9.40
2022-10-19T05:37:00.318Z,9.40
2022-10-19T05:38:00.301Z,9.40
2022-10-19T05:39:02.045Z,9.40
2022-10-19T05:40:00.477Z,9.40
2022-10-19T05:41:00.303Z,9.40
2022-10-19T05:42:00.325Z,9.40
2022-10-19T05:43:00.305Z,9.40
2022-10-19T05:44:01.041Z,9.40
2022-10-19T05:45:00.323Z,9.40
2022-10-19T05:46:02.247Z,9.40
2022-10-19T05:47:00.481Z,9.40
2022-10-19T05:48:00.297Z,9.40
2022-10-19T05:49:00.683Z,9.40
2022-10-19T05:50:00.324Z,9.40
2022-10-19T05:51:01.251Z,9.40
2022-10-19T05:52:00.312Z,9.40
2022-10-19T05:53:00.329Z,9.40
2022-10-19T05:54:00.416Z,9.40
2022-10-19T05:55:00.312Z,9.40
2022-10-19T05:56:00.325Z,9.40
2022-10-19T05:57:00.421Z,11.40
2022-10-19T05:58:00.306Z,11.40
2022-10-19T05:59:01.975Z,11.40
2022-10-19T06:00:00.377Z,11.40
2022-10-19T06:01:00.923Z,11.40
2022-10-19T06:02:00.354Z,11.40
2022-10-19T06:03:00.300Z,11.40
2022-10-19T06:04:00.799Z,11.40
2022-10-19T06:05:00.302Z,11.40
2022-10-19T06:06:02.389Z,11.40
2022-10-19T06:07:00.303Z,11.40
2022-10-19T06:08:00.301Z,11.40
2022-10-19T06:09:00.350Z,11.40
2022-10-19T06:10:00.403Z,11.40
2022-10-19T06:11:04.880Z,11.40
2022-10-19T06:12:00.980Z,11.40
2022-10-19T06:13:00.301Z,11.40
2022-10-19T06:14:01.371Z,11.40
2022-10-19T06:15:00.318Z,11.40
2022-10-19T06:16:00.344Z,11.40
2022-10-19T06:17:00.313Z,11.40
2022-10-19T06:18:00.306Z,11.40
2022-10-19T06:19:00.435Z,11.40
2022-10-19T06:20:00.335Z,11.40
2022-10-19T06:21:02.295Z,11.40
2022-10-19T06:22:00.302Z,11.40
2022-10-19T06:23:00.512Z,11.40
2022-10-19T06:24:02.450Z,11.40
2022-10-19T06:25:00.328Z,11.40
2022-10-19T06:26:02.796Z,11.40
2022-10-19T06:27:00.308Z,9.70
2022-10-19T06:28:00.747Z,9.70
2022-10-19T06:29:00.937Z,9.70
2022-10-19T06:30:00.389Z,9.70
2022-10-19T06:31:00.420Z,9.70
2022-10-19T06:32:00.335Z,9.70
2022-10-19T06:33:00.495Z,9.70
2022-10-19T06:34:00.462Z,9.70
2022-10-19T06:35:00.308Z,9.70
2022-10-19T06:36:08.918Z,9.70
2022-10-19T06:37:00.429Z,9.70
2022-10-19T06:38:00.322Z,9.70
2022-10-19T06:39:00.314Z,9.70
2022-10-19T06:40:04.737Z,9.70
2022-10-19T06:41:00.419Z,9.70
2022-10-19T06:42:00.302Z,9.70
2022-10-19T06:43:00.673Z,9.70
2022-10-19T06:44:00.314Z,9.70
2022-10-19T06:45:00.321Z,9.70
2022-10-19T06:46:10.190Z,9.70
2022-10-19T06:47:00.298Z,9.70
2022-10-19T06:48:03.523Z,9.70
2022-10-19T06:49:00.815Z,9.70
2022-10-19T06:50:00.718Z,9.70
2022-10-19T06:51:01.866Z,9.70
2022-10-19T06:52:01.232Z,9.70
2022-10-19T06:53:00.381Z,9.70
2022-10-19T06:54:00.384Z,9.70
2022-10-19T06:55:00.695Z,9.70
2022-10-19T06:56:01.175Z,9.70
2022-10-19T06:57:00.319Z,13.40
2022-10-19T06:58:00.307Z,13.40
2022-10-19T06:59:00.362Z,13.40
2022-10-19T07:00:00.381Z,13.40
2022-10-19T07:01:00.825Z,13.40
2022-10-19T07:02:00.304Z,13.40
2022-10-19T07:03:00.298Z,13.40
2022-10-19T07:04:00.322Z,13.40
2022-10-19T07:05:04.477Z,13.40
2022-10-19T07:06:01.229Z,13.40
2022-10-19T07:07:00.305Z,13.40
2022-10-19T07:08:00.446Z,13.40
2022-10-19T07:09:00.309Z,13.40
2022-10-19T07:10:00.340Z,13.40
2022-10-19T07:11:01.370Z,13.40
2022-10-19T07:12:00.305Z,13.40
2022-10-19T07:13:00.355Z,13.40
2022-10-19T07:14:00.360Z,13.40
2022-10-19T07:15:00.308Z,13.40
2022-10-19T07:16:02.911Z,13.40
2022-10-19T07:17:00.309Z,13.40
2022-10-19T07:18:00.297Z,13.40
2022-10-19T07:19:00.341Z,13.40
2022-10-19T07:20:00.368Z,13.40
2022-10-19T07:21:01.506Z,13.40
2022-10-19T07:22:00.521Z,13.40
2022-10-19T07:23:00.349Z,13.40
2022-10-19T07:24:00.296Z,13.40
2022-10-19T07:25:00.338Z,13.40
2022-10-19T07:26:10.187Z,13.40
2022-10-19T07:27:00.305Z,11.20
2022-10-19T07:28:00.345Z,11.20
2022-10-19T07:29:00.612Z,11.20
2022-10-19T07:30:00.338Z,11.20
2022-10-19T07:31:04.843Z,11.20
2022-10-19T07:32:00.320Z,11.20
2022-10-19T07:33:00.307Z,11.20
2022-10-19T07:34:01.563Z,11.20
2022-10-19T07:35:00.330Z,11.20
2022-10-19T07:36:01.154Z,11.20
2022-10-19T07:37:00.323Z,11.20
2022-10-19T07:38:00.302Z,11.20
2022-10-19T07:39:01.159Z,11.20
2022-10-19T07:40:00.321Z,11.20
2022-10-19T07:41:01.364Z,11.20
2022-10-19T07:42:00.312Z,11.20
2022-10-19T07:43:00.639Z,11.20
2022-10-19T07:44:00.398Z,11.20
2022-10-19T07:45:00.312Z,11.20
2022-10-19T07:46:02.543Z,11.20
2022-10-19T07:47:00.301Z,11.20
2022-10-19T07:48:00.327Z,11.20
2022-10-19T07:49:00.543Z,11.20
2022-10-19T07:50:00.393Z,11.20
2022-10-19T07:51:00.965Z,11.20
2022-10-19T07:52:00.482Z,11.20
2022-10-19T07:53:00.347Z,11.20
2022-10-19T07:54:00.309Z,11.20
2022-10-19T07:55:00.314Z,11.20
2022-10-19T07:56:02.592Z,11.20
2022-10-19T07:57:00.295Z,33.50
2022-10-19T07:58:00.301Z,33.50
2022-10-19T07:59:00.578Z,33.50
2022-10-19T08:00:00.416Z,33.50
2022-10-19T08:01:02.913Z,33.50
2022-10-19T08:02:00.330Z,33.50
2022-10-19T08:03:31.693Z,33.50
2022-10-19T08:05:03.240Z,33.50
2022-10-19T08:06:00.975Z,33.50
2022-10-19T08:07:00.303Z,33.50
2022-10-19T08:08:00.332Z,33.50
2022-10-19T08:09:00.371Z,33.50
2022-10-19T08:10:00.328Z,33.50
2022-10-19T08:11:10.192Z,33.50
2022-10-19T08:12:00.402Z,33.50
2022-10-19T08:13:00.309Z,33.50
2022-10-19T08:14:00.911Z,33.50
2022-10-19T08:15:00.343Z,33.50
2022-10-19T08:16:00.366Z,33.50
2022-10-19T08:17:00.447Z,33.50
2022-10-19T08:18:00.391Z,33.50
2022-10-19T08:19:01.675Z,33.50
2022-10-19T08:20:00.335Z,33.50
2022-10-19T08:21:01.162Z,33.50
2022-10-19T08:22:00.304Z,33.50
2022-10-19T08:23:00.334Z,33.50
2022-10-19T08:24:00.337Z,33.50
2022-10-19T08:25:00.350Z,33.50
2022-10-19T08:26:00.322Z,33.50
2022-10-19T08:27:00.306Z,17.10
2022-10-19T08:28:00.309Z,17.10
2022-10-19T08:29:01.651Z,17.10
2022-10-19T08:30:00.295Z,17.10
2022-10-19T08:31:08.048Z,17.10
2022-10-19T08:32:00.286Z,17.10
2022-10-19T08:33:00.656Z,17.10
2022-10-19T08:34:00.345Z,17.10
2022-10-19T08:35:00.306Z,17.10
2022-10-19T08:36:03.146Z,17.10
2022-10-19T08:37:06.717Z,17.10
2022-10-19T08:38:02.761Z,17.10
2022-10-19T08:39:00.901Z,17.10
2022-10-19T08:40:00.332Z,17.10
2022-10-19T08:41:05.492Z,17.10
2022-10-19T08:42:02.894Z,17.10
2022-10-19T08:43:10.194Z,17.10
2022-10-19T08:44:10.377Z,17.10
2022-10-19T08:45:08.035Z,17.10
2022-10-19T08:46:03.651Z,17.10
2022-10-19T08:47:02.625Z,17.10
2022-10-19T08:48:10.214Z,17.10
2022-10-19T08:49:00.369Z,17.10
2022-10-19T08:50:00.403Z,17.10
2022-10-19T08:51:00.360Z,17.10
2022-10-19T08:52:06.475Z,17.10
2022-10-19T08:53:01.511Z,17.10
2022-10-19T08:54:02.993Z,17.10
2022-10-19T08:55:03.066Z,17.10
2022-10-19T08:56:03.736Z,17.10
2022-10-19T08:57:10.018Z,18.30
2022-10-19T08:58:10.203Z,18.30
2022-10-19T08:59:10.207Z,18.30
2022-10-19T09:00:05.323Z,18.30
2022-10-19T09:01:00.299Z,18.30
2022-10-19T09:02:03.803Z,18.30
2022-10-19T09:03:03.605Z,18.30
2022-10-19T09:04:04.380Z,18.30
2022-10-19T09:05:04.576Z,18.30
2022-10-19T09:06:10.216Z,18.30
2022-10-19T09:07:10.248Z,18.30
2022-10-19T09:08:00.373Z,18.30
2022-10-19T09:09:00.470Z,18.30
2022-10-19T09:10:02.141Z,18.30
2022-10-19T09:11:00.340Z,18.30
2022-10-19T09:12:04.732Z,18.30
2022-10-19T09:13:02.408Z,18.30
2022-10-19T09:14:07.644Z,18.30
2022-10-19T09:15:02.359Z,18.30
2022-10-19T09:16:00.425Z,18.30
2022-10-19T09:17:01.939Z,18.30
2022-10-19T09:18:00.604Z,18.30
2022-10-19T09:19:00.509Z,18.30
2022-10-19T09:20:10.247Z,18.30
2022-10-19T09:21:03.584Z,18.30
2022-10-19T09:22:03.294Z,18.30
2022-10-19T09:23:09.774Z,18.30
2022-10-19T09:24:04.804Z,18.30
2022-10-19T09:25:02.705Z,18.30
2022-10-19T09:26:00.314Z,18.30
2022-10-19T09:27:00.763Z,11.20
2022-10-19T09:28:05.583Z,11.20
2022-10-19T09:29:05.590Z,11.20
2022-10-19T09:30:01.275Z,11.20
2022-10-19T09:31:00.790Z,11.20
2022-10-19T09:32:02.653Z,11.20
2022-10-19T09:33:00.924Z,11.20
2022-10-19T09:34:02.139Z,11.20
2022-10-19T09:35:01.972Z,11.20
2022-10-19T09:36:01.768Z,11.20
2022-10-19T09:37:00.345Z,11.20
2022-10-19T09:38:00.450Z,11.20
2022-10-19T09:39:00.449Z,11.20
2022-10-19T09:40:00.435Z,11.20
2022-10-19T09:41:10.189Z,11.20
2022-10-19T09:42:09.268Z,11.20
2022-10-19T09:43:00.523Z,11.20
2022-10-19T09:44:00.806Z,11.20
2022-10-19T09:45:01.795Z,11.20
2022-10-19T09:46:12.717Z,11.20
2022-10-19T09:47:03.605Z,11.20
2022-10-19T09:48:08.640Z,11.20
2022-10-19T09:49:02.264Z,11.20
2022-10-19T09:50:05.860Z,11.20
2022-10-19T09:51:01.204Z,11.20
2022-10-19T09:52:00.344Z,11.20
2022-10-19T09:53:03.925Z,11.20
2022-10-19T09:54:00.299Z,11.20
2022-10-19T09:55:02.300Z,11.20
2022-10-19T09:56:03.793Z,11.20
2022-10-19T09:57:00.615Z,17.20
2022-10-19T09:58:10.236Z,17.20
2022-10-19T09:59:00.306Z,17.20
2022-10-19T10:00:00.432Z,17.20
2022-10-19T10:01:01.330Z,17.20
2022-10-19T10:02:10.191Z,17.20
2022-10-19T10:03:00.349Z,17.20
2022-10-19T10:04:04.128Z,17.20
2022-10-19T10:05:01.337Z,17.20
2022-10-19T10:06:03.036Z,17.20
2022-10-19T10:07:00.341Z,17.20
2022-10-19T10:08:00.546Z,17.20
2022-10-19T10:09:00.716Z,17.20
2022-10-19T10:10:00.501Z,17.20
2022-10-19T10:11:07.834Z,17.20
2022-10-19T10:12:00.471Z,17.20
2022-10-19T10:13:00.691Z,17.20
2022-10-19T10:14:10.216Z,17.20
2022-10-19T10:15:02.851Z,17.20
2022-10-19T10:16:02.832Z,17.20
2022-10-19T10:17:01.362Z,17.20
2022-10-19T10:18:00.469Z,17.20
2022-10-19T10:19:05.656Z,17.20
2022-10-19T10:20:00.283Z,17.20
2022-10-19T10:21:03.148Z,17.20
2022-10-19T10:22:01.924Z,17.20
2022-10-19T10:23:02.459Z,17.20
2022-10-19T10:24:01.793Z,17.20
2022-10-19T10:25:00.661Z,17.20
2022-10-19T10:26:01.325Z,17.20
2022-10-19T10:27:02.104Z,11.50
2022-10-19T10:28:02.614Z,11.50
2022-10-19T10:29:01.570Z,11.50
2022-10-19T10:30:04.885Z,11.50
2022-10-19T10:31:03.790Z,11.50
2022-10-19T10:32:10.202Z,11.50
2022-10-19T10:33:08.214Z,11.50
2022-10-19T10:34:07.530Z,11.50
2022-10-19T10:35:01.984Z,11.50
2022-10-19T10:36:02.580Z,11.50
2022-10-19T10:37:01.931Z,11.50
2022-10-19T10:38:05.366Z,11.50
2022-10-19T10:39:03.951Z,11.50
2022-10-19T10:40:03.712Z,11.50
2022-10-19T10:41:03.258Z,11.50
2022-10-19T10:42:04.053Z,11.50
2022-10-19T10:43:03.769Z,11.50
2022-10-19T10:44:03.882Z,11.50
2022-10-19T10:45:00.873Z,11.50
2022-10-19T10:46:04.397Z,11.50
2022-10-19T10:47:02.001Z,11.50
2022-10-19T10:48:10.204Z,11.50
2022-10-19T10:49:03.108Z,11.50
2022-10-19T10:50:03.098Z,11.50
2022-10-19T10:51:00.446Z,11.50
2022-10-19T10:52:03.994Z,11.50
2022-10-19T10:53:01.750Z,11.50
2022-10-19T10:54:10.226Z,11.50
2022-10-19T10:55:10.205Z,11.50
2022-10-19T10:56:00.322Z,11.50
2022-10-19T10:57:07.908Z,15.00
2022-10-19T10:58:08.147Z,15.00
2022-10-19T10:59:00.272Z,15.00
2022-10-19T11:00:03.737Z,15.00
2022-10-19T11:01:06.601Z,15.00
2022-10-19T11:02:02.929Z,15.00
2022-10-19T11:03:05.704Z,15.00
2022-10-19T11:04:04.715Z,15.00
2022-10-19T11:05:10.218Z,15.00
2022-10-19T11:06:00.391Z,15.00
2022-10-19T11:07:03.985Z,15.00
2022-10-19T11:08:05.891Z,15.00
2022-10-19T11:09:06.682Z,15.00
2022-10-19T11:10:04.433Z,15.00
2022-10-19T11:11:00.289Z,15.00
2022-10-19T11:12:02.512Z,15.00
2022-10-19T11:13:10.217Z,15.00
2022-10-19T11:14:10.186Z,15.00
2022-10-19T11:15:03.657Z,15.00
2022-10-19T11:16:03.752Z,15.00
2022-10-19T11:17:03.959Z,15.00
2022-10-19T11:18:10.196Z,15.00
2022-10-19T11:19:10.223Z,15.00
2022-10-19T11:20:00.329Z,15.00
2022-10-19T11:21:03.969Z,15.00
2022-10-19T11:22:10.192Z,15.00
2022-10-19T11:23:05.990Z,15.00
2022-10-19T11:24:01.369Z,15.00
2022-10-19T11:25:00.302Z,15.00
2022-10-19T11:26:01.309Z,15.00
2022-10-19T11:27:10.196Z,13.60
2022-10-19T11:28:01.313Z,13.60
2022-10-19T11:29:10.202Z,13.60
2022-10-19T11:30:00.292Z,13.60
2022-10-19T11:31:05.464Z,13.60
2022-10-19T11:32:00.362Z,13.60
2022-10-19T11:33:01.333Z,13.60
2022-10-19T11:34:10.243Z,13.60
2022-10-19T11:35:00.299Z,13.60
2022-10-19T11:36:09.412Z,13.60
2022-10-19T11:37:00.297Z,13.60
2022-10-19T11:38:20.347Z,13.60
2022-10-19T11:39:10.186Z,13.60
2022-10-19T11:40:10.183Z,13.60
2022-10-19T11:41:17.863Z,13.60
2022-10-19T11:42:07.659Z,13.60
2022-10-19T11:43:03.027Z,13.60
2022-10-19T11:44:10.191Z,13.60
2022-10-19T11:45:00.290Z,13.60
2022-10-19T11:46:03.592Z,13.60
2022-10-19T11:47:10.214Z,13.60
2022-10-19T11:48:10.199Z,13.60
2022-10-19T11:49:03.610Z,13.60
2022-10-19T11:50:03.784Z,13.60
2022-10-19T11:51:20.907Z,13.60
2022-10-19T11:52:06.185Z,13.60
2022-10-19T11:53:10.208Z,13.60
2022-10-19T11:54:14.631Z,13.60
2022-10-19T11:55:00.313Z,13.60
2022-10-19T11:56:06.935Z,13.60
2022-10-19T11:57:11.520Z,14.60
2022-10-19T11:58:01.338Z,14.60
2022-10-19T11:59:08.895Z,14.60
2022-10-19T12:00:33.887Z,14.60
2022-10-19T12:01:10.191Z,14.60
2022-10-19T12:02:10.248Z,14.60
2022-10-19T12:03:10.209Z,14.60
2022-10-19T12:04:10.204Z,14.60
2022-10-19T12:05:03.727Z,14.60
2022-10-19T12:06:07.759Z,14.60
2022-10-19T12:07:08.930Z,14.60
2022-10-19T12:08:00.288Z,14.60
2022-10-19T12:09:08.561Z,14.60
2022-10-19T12:10:03.608Z,14.60
2022-10-19T12:11:07.516Z,14.60
2022-10-19T12:12:00.293Z,14.60
2022-10-19T12:13:01.584Z,14.60
2022-10-19T12:14:02.879Z,14.60
2022-10-19T12:15:04.353Z,14.60
2022-10-19T12:16:00.585Z,14.60
2022-10-19T12:17:05.823Z,14.60
2022-10-19T12:18:05.896Z,14.60
2022-10-19T12:19:02.884Z,14.60
2022-10-19T12:20:04.188Z,14.60
2022-10-19T12:21:01.979Z,14.60
2022-10-19T12:22:03.244Z,14.60
2022-10-19T12:23:03.918Z,14.60
2022-10-19T12:24:02.033Z,14.60
2022-10-19T12:25:00.702Z,14.60
2022-10-19T12:26:02.701Z,14.60
2022-10-19T12:27:00.791Z,8.70
2022-10-19T12:28:01.874Z,8.70
2022-10-19T12:29:03.334Z,8.70
2022-10-19T12:30:05.539Z,8.70
2022-10-19T12:31:01.130Z,8.70
2022-10-19T12:32:01.951Z,8.70
2022-10-19T12:33:01.340Z,8.70
2022-10-19T12:34:10.226Z,8.70
2022-10-19T12:35:10.259Z,8.70
2022-10-19T12:36:10.202Z,8.70
2022-10-19T12:37:00.303Z,8.70
2022-10-19T12:38:07.609Z,8.70
2022-10-19T12:39:10.203Z,8.70
2022-10-19T12:40:01.316Z,8.70
2022-10-19T12:41:08.467Z,8.70
2022-10-19T12:42:06.205Z,8.70
2022-10-19T12:43:07.249Z,8.70
2022-10-19T12:44:07.954Z,8.70
2022-10-19T12:45:10.255Z,8.70
2022-10-19T12:46:10.213Z,8.70
2022-10-19T12:47:07.404Z,8.70
2022-10-19T12:48:10.209Z,8.70
2022-10-19T12:49:10.194Z,8.70
2022-10-19T12:50:00.341Z,8.70
2022-10-19T12:51:01.762Z,8.70
2022-10-19T12:52:00.641Z,8.70
2022-10-19T12:53:00.338Z,8.70
2022-10-19T12:54:08.220Z,8.70
2022-10-19T12:55:10.231Z,8.70
2022-10-19T12:56:02.138Z,8.70
2022-10-19T12:57:02.148Z,9.90
2022-10-19T12:58:01.968Z,9.90